Time;durP1;ratioP1;P1;durP2;ratioP2;P2;SDS_P1;SDS_P2;PMS_P1;PMS_P2;Temp;Humidity;BMP_temperature;BMP_pressure;BME280_temperature;BME280_humidity;BME280_pressure;Samples;Min_cycle;Max_cycle;Signal;HPM_P1;HPM_P2
2023/08/11 00:01:28;;;;;;;7.05;5.32;;;14.40;99.90;;;;;;7580817;19;21754;-74
2023/08/11 00:04:00;;;;;;;6.72;5.22;;;14.40;99.90;;;;;;7578398;19;20059;-72
2023/08/11 00:06:33;;;;;;;8.50;5.43;;;14.30;99.90;;;;;;7583356;19;20015;-73
2023/08/11 00:09:08;;;;;;;10.57;5.10;;;14.30;99.90;;;;;;7587494;19;20010;-72
2023/08/11 00:11:41;;;;;;;8.57;5.15;;;14.20;99.90;;;;;;7587319;19;20086;-72
2023/08/11 00:14:13;;;;;;;8.23;5.93;;;14.20;99.90;;;;;;7591442;19;20058;-73
2023/08/11 00:16:45;;;;;;;8.10;5.15;;;14.20;99.90;;;;;;7598315;19;20035;-72
2023/08/11 00:19:18;;;;;;;11.63;5.23;;;14.20;99.90;;;;;;7588190;19;20059;-73
2023/08/11 00:21:50;;;;;;;8.23;4.75;;;14.20;99.90;;;;;;7586643;19;20011;-72
2023/08/11 00:24:23;;;;;;;5.38;4.35;;;14.20;99.90;;;;;;7582370;19;20022;-72
2023/08/11 00:26:56;;;;;;;10.02;5.10;;;14.20;99.90;;;;;;7584210;19;20473;-72
2023/08/11 00:29:31;;;;;;;9.80;5.63;;;14.10;99.90;;;;;;7593278;19;22765;-74
2023/08/11 00:32:04;;;;;;;7.50;5.70;;;14.10;99.90;;;;;;7577654;19;20324;-73
2023/08/11 00:34:37;;;;;;;6.88;5.35;;;14.00;99.90;;;;;;7590885;19;20360;-73
2023/08/11 00:37:10;;;;;;;10.07;5.60;;;14.00;99.90;;;;;;7590158;19;20069;-74
2023/08/11 00:39:43;;;;;;;6.07;5.15;;;14.00;99.90;;;;;;7587146;19;20303;-73
2023/08/11 00:42:15;;;;;;;8.60;5.18;;;14.00;99.90;;;;;;7589092;19;21284;-74
2023/08/11 00:44:47;;;;;;;6.68;5.20;;;14.00;99.90;;;;;;7575914;19;20022;-73
2023/08/11 00:47:20;;;;;;;9.40;5.40;;;14.10;99.90;;;;;;7587478;19;20744;-73
2023/08/11 00:49:52;;;;;;;8.67;5.13;;;14.10;99.90;;;;;;7593998;19;20010;-74
2023/08/11 00:52:26;;;;;;;8.10;4.93;;;14.00;99.90;;;;;;7590508;19;20026;-76
2023/08/11 00:54:58;;;;;;;9.25;6.68;;;14.00;99.90;;;;;;7591321;19;20464;-74
2023/08/11 00:57:31;;;;;;;9.38;5.15;;;14.00;99.90;;;;;;7582823;19;20015;-73
2023/08/11 01:00:13;;;;;;;7.82;4.85;;;13.90;99.90;;;;;;7594177;19;20105;-71
2023/08/11 01:02:46;;;;;;;10.05;5.93;;;13.90;99.90;;;;;;7577200;19;20011;-74
2023/08/11 01:05:20;;;;;;;9.40;5.93;;;13.80;99.90;;;;;;7592666;19;20511;-75
2023/08/11 01:08:01;;;;;;;8.30;5.65;;;13.80;99.90;;;;;;7585786;19;21026;-73
2023/08/11 01:10:39;;;;;;;8.60;5.55;;;13.80;99.90;;;;;;7582674;19;20018;-73
2023/08/11 01:13:19;;;;;;;9.20;5.60;;;13.80;99.90;;;;;;7589418;19;20021;-73
2023/08/11 01:16:00;;;;;;;9.05;5.75;;;13.80;99.90;;;;;;7580660;19;21090;-73
2023/08/11 01:18:33;;;;;;;8.57;5.95;;;13.70;99.90;;;;;;7584387;19;20997;-71
2023/08/11 01:21:10;;;;;;;10.45;6.10;;;13.70;99.90;;;;;;7583323;19;20026;-72
2023/08/11 01:23:42;;;;;;;10.88;6.22;;;13.70;99.90;;;;;;7582794;19;20015;-72
2023/08/11 01:26:15;;;;;;;13.45;6.00;;;13.70;99.90;;;;;;7589677;19;20555;-74
2023/08/11 01:28:53;;;;;;;10.33;5.27;;;13.70;99.90;;;;;;7580383;19;20038;-74
2023/08/11 01:31:25;;;;;;;10.30;6.07;;;13.60;99.90;;;;;;7586511;19;20041;-76
2023/08/11 01:33:57;;;;;;;10.00;5.85;;;13.70;99.90;;;;;;7582883;19;20022;-72
2023/08/11 01:36:31;;;;;;;10.15;5.07;;;13.60;99.90;;;;;;7588269;19;20014;-72
2023/08/11 01:39:07;;;;;;;13.85;5.35;;;13.60;99.90;;;;;;7585027;19;20121;-72
2023/08/11 01:41:39;;;;;;;7.50;4.90;;;13.60;99.90;;;;;;7583453;19;20015;-74
2023/08/11 01:44:12;;;;;;;10.95;5.82;;;13.60;99.90;;;;;;7582800;19;20732;-75
2023/08/11 01:46:46;;;;;;;8.40;5.07;;;13.50;99.90;;;;;;7577559;19;20018;-73
2023/08/11 01:49:19;;;;;;;11.88;5.55;;;13.50;99.90;;;;;;7583284;19;20014;-73
2023/08/11 01:51:52;;;;;;;13.30;6.23;;;13.50;99.90;;;;;;7578543;19;20873;-74
2023/08/11 01:54:25;;;;;;;9.75;5.55;;;13.50;99.90;;;;;;7581587;19;20022;-74
2023/08/11 01:56:59;;;;;;;8.10;6.30;;;13.40;99.90;;;;;;7583753;19;20043;-72
2023/08/11 01:59:31;;;;;;;7.88;5.90;;;13.40;99.90;;;;;;7585071;19;20070;-73
2023/08/11 02:02:03;;;;;;;8.80;5.90;;;13.40;99.90;;;;;;7577933;19;20033;-73
2023/08/11 02:04:36;;;;;;;7.55;5.80;;;13.40;99.90;;;;;;7582299;19;20499;-73
2023/08/11 02:07:08;;;;;;;10.18;5.95;;;13.40;99.90;;;;;;7587912;19;20102;-73
2023/08/11 02:09:41;;;;;;;7.97;6.03;;;13.50;99.90;;;;;;7583608;19;20015;-73
2023/08/11 02:12:13;;;;;;;8.02;5.38;;;13.50;99.90;;;;;;7584885;19;20022;-72
2023/08/11 02:14:45;;;;;;;9.55;5.47;;;13.40;99.90;;;;;;7573008;19;20022;-72
2023/08/11 02:17:17;;;;;;;7.18;5.68;;;13.40;99.90;;;;;;7581167;19;20014;-72
2023/08/11 02:19:50;;;;;;;8.90;5.20;;;13.30;99.90;;;;;;7592354;19;20649;-73
2023/08/11 02:22:23;;;;;;;10.05;5.72;;;13.30;99.90;;;;;;7591947;19;20022;-72
2023/08/11 02:24:55;;;;;;;9.48;6.32;;;13.20;99.90;;;;;;7586611;19;20805;-73
2023/08/11 02:27:27;;;;;;;10.40;6.28;;;13.20;99.90;;;;;;7587841;19;20021;-73
2023/08/11 02:30:01;;;;;;;8.50;5.45;;;13.20;99.90;;;;;;7582439;19;20026;-73
2023/08/11 02:32:34;;;;;;;11.85;6.22;;;13.10;99.90;;;;;;7589869;19;20097;-74
2023/08/11 02:35:07;;;;;;;9.95;5.68;;;13.10;99.90;;;;;;7588975;19;20010;-73
2023/08/11 02:37:40;;;;;;;7.50;5.65;;;13.10;99.90;;;;;;7587783;19;20015;-73
2023/08/11 02:40:14;;;;;;;8.07;5.78;;;13.10;99.90;;;;;;7583985;19;20045;-73
2023/08/11 02:42:54;;;;;;;12.10;6.78;;;13.00;99.90;;;;;;7585197;19;20105;-73
2023/08/11 02:45:26;;;;;;;10.82;6.30;;;13.00;99.90;;;;;;7579457;19;20033;-72
2023/08/11 02:47:59;;;;;;;7.28;5.93;;;13.00;99.90;;;;;;7579836;19;20014;-74
2023/08/11 02:50:34;;;;;;;9.98;5.97;;;13.00;99.90;;;;;;7589280;19;20017;-73
2023/08/11 02:53:06;;;;;;;8.87;5.73;;;13.00;99.90;;;;;;7587659;19;20026;-73
2023/08/11 02:55:39;;;;;;;10.85;6.05;;;13.00;99.90;;;;;;7587788;19;21160;-75
2023/08/11 02:58:11;;;;;;;9.55;6.07;;;13.10;99.90;;;;;;7586477;19;20052;-73
2023/08/11 03:00:45;;;;;;;10.85;6.32;;;13.10;99.90;;;;;;7579496;19;20014;-72
2023/08/11 03:03:17;;;;;;;7.03;5.68;;;13.20;99.90;;;;;;7583591;19;20029;-74
2023/08/11 03:05:50;;;;;;;10.68;5.28;;;13.10;99.90;;;;;;7577819;19;20113;-75
2023/08/11 03:08:22;;;;;;;6.80;5.30;;;13.10;99.90;;;;;;7592096;19;20534;-75
2023/08/11 03:10:55;;;;;;;11.32;6.30;;;13.00;99.90;;;;;;7579616;19;20021;-73
2023/08/11 03:13:35;;;;;;;10.23;5.97;;;13.00;99.90;;;;;;7585643;19;20058;-73
2023/08/11 03:16:08;;;;;;;10.18;5.53;;;13.00;99.90;;;;;;7581107;19;20300;-73
2023/08/11 03:18:41;;;;;;;8.88;5.80;;;13.00;99.90;;;;;;7589478;19;20019;-73
2023/08/11 03:21:13;;;;;;;9.43;5.70;;;13.00;99.90;;;;;;7583621;19;20115;-74
2023/08/11 03:23:52;;;;;;;8.05;6.50;;;12.90;99.90;;;;;;7579840;19;20018;-72
2023/08/11 03:26:25;;;;;;;9.63;5.20;;;12.90;99.90;;;;;;7587658;19;20949;-72
2023/08/11 03:28:59;;;;;;;8.85;5.70;;;12.80;99.90;;;;;;7582516;19;21179;-74
2023/08/11 03:31:32;;;;;;;9.15;6.00;;;12.90;99.90;;;;;;7579268;19;20017;-73
2023/08/11 03:34:05;;;;;;;8.82;5.57;;;12.90;99.90;;;;;;7581297;19;20025;-73
2023/08/11 03:36:37;;;;;;;15.55;5.72;;;12.90;99.90;;;;;;7581706;19;20089;-72
2023/08/11 03:39:09;;;;;;;10.85;5.85;;;12.90;99.90;;;;;;7580832;19;20026;-72
2023/08/11 03:41:42;;;;;;;8.65;5.65;;;12.90;99.90;;;;;;7586927;19;20019;-72
2023/08/11 03:44:14;;;;;;;9.38;6.60;;;12.90;99.90;;;;;;7581295;19;20909;-74
2023/08/11 03:46:48;;;;;;;16.60;6.57;;;12.90;99.90;;;;;;7571975;19;21122;-71
2023/08/11 03:49:21;;;;;;;10.52;5.50;;;12.90;99.90;;;;;;7590383;19;20014;-73
2023/08/11 03:51:53;;;;;;;8.40;6.07;;;12.90;99.90;;;;;;7576779;19;20495;-73
2023/08/11 03:54:26;;;;;;;9.82;6.50;;;12.90;99.90;;;;;;7587007;19;20714;-72
2023/08/11 03:57:14;;;;;;;10.30;6.43;;;12.80;99.90;;;;;;7580885;19;20903;-75
2023/08/11 03:59:47;;;;;;;7.28;5.22;;;12.90;99.90;;;;;;7584545;19;20682;-72
2023/08/11 04:02:20;;;;;;;9.73;5.80;;;12.90;99.90;;;;;;7579304;19;20018;-72
2023/08/11 04:04:52;;;;;;;13.85;6.55;;;13.00;99.90;;;;;;7580704;19;20109;-72
2023/08/11 04:07:24;;;;;;;8.68;5.97;;;12.90;99.90;;;;;;7580402;19;20021;-76
2023/08/11 04:09:58;;;;;;;11.68;5.50;;;13.00;99.90;;;;;;7581331;19;20205;-72
2023/08/11 04:12:31;;;;;;;10.75;6.13;;;13.00;99.90;;;;;;7586669;19;20055;-73
2023/08/11 04:15:05;;;;;;;;;;;12.90;99.90;;;;;;7580505;19;21007;-72
2023/08/11 04:17:37;;;;;;;7.32;5.70;;;12.80;99.90;;;;;;7589415;19;19923;-72
2023/08/11 04:20:13;;;;;;;8.15;5.80;;;12.80;99.90;;;;;;7587217;19;20023;-75
2023/08/11 04:22:46;;;;;;;7.60;5.65;;;12.80;99.90;;;;;;7590086;19;20385;-73
2023/08/11 04:25:18;;;;;;;7.05;5.35;;;12.80;99.90;;;;;;7585146;19;20019;-73
2023/08/11 04:27:52;;;;;;;8.05;5.75;;;12.80;99.90;;;;;;7584751;19;20149;-75
2023/08/11 04:30:24;;;;;;;7.00;5.47;;;12.80;99.90;;;;;;7590368;19;20010;-75
2023/08/11 04:32:57;;;;;;;8.73;5.93;;;12.80;99.90;;;;;;7585992;19;20082;-73
2023/08/11 04:35:29;;;;;;;9.85;5.45;;;12.80;99.90;;;;;;7586372;19;20026;-74
2023/08/11 04:38:02;;;;;;;6.72;5.50;;;12.70;99.90;;;;;;7588709;19;20022;-73
2023/08/11 04:40:37;;;;;;;10.88;6.13;;;12.80;99.90;;;;;;7586701;19;20018;-73
2023/08/11 04:43:09;;;;;;;10.98;5.88;;;12.80;99.90;;;;;;7585646;19;20022;-72
2023/08/11 04:45:45;;;;;;;7.80;6.03;;;12.80;99.90;;;;;;7583134;19;20019;-74
2023/08/11 04:48:21;;;;;;;10.20;5.85;;;12.80;99.90;;;;;;7589369;19;20006;-72
2023/08/11 04:50:56;;;;;;;7.20;5.93;;;12.80;99.90;;;;;;7585598;19;20025;-74
2023/08/11 04:53:29;;;;;;;8.38;5.70;;;12.90;99.90;;;;;;7585682;19;20014;-75
2023/08/11 04:56:01;;;;;;;9.40;5.80;;;12.90;99.90;;;;;;7574147;19;20504;-72
2023/08/11 04:58:33;;;;;;;12.15;6.28;;;13.00;99.90;;;;;;7594010;19;20019;-73
2023/08/11 05:01:07;;;;;;;16.20;5.60;;;13.00;99.90;;;;;;7565689;19;20056;-75
2023/08/11 05:03:40;;;;;;;7.60;5.68;;;13.00;99.90;;;;;;7593935;19;20624;-73
2023/08/11 05:06:12;;;;;;;9.18;6.03;;;13.00;99.90;;;;;;7593968;19;20022;-74
2023/08/11 05:08:48;;;;;;;9.88;6.57;;;13.10;99.90;;;;;;7586164;19;20029;-72
2023/08/11 05:11:20;;;;;;;7.75;6.15;;;13.10;99.90;;;;;;7596013;19;20018;-73
2023/08/11 05:13:54;;;;;;;10.03;6.23;;;13.30;99.90;;;;;;7599651;19;20023;-73
2023/08/11 05:16:26;;;;;;;11.43;6.78;;;13.60;99.90;;;;;;7591604;19;21203;-72
2023/08/11 05:18:58;;;;;;;9.98;6.32;;;13.70;99.90;;;;;;7599935;19;20019;-73
2023/08/11 05:21:31;;;;;;;9.32;6.32;;;13.80;99.90;;;;;;7599580;19;20014;-72
2023/08/11 05:24:04;;;;;;;10.00;6.67;;;14.00;99.90;;;;;;7599994;19;20025;-72
2023/08/11 05:26:37;;;;;;;13.23;6.40;;;14.10;99.90;;;;;;7593435;19;20021;-73
2023/08/11 05:29:09;;;;;;;14.68;6.85;;;14.10;99.90;;;;;;7588206;19;20018;-73
2023/08/11 05:31:43;;;;;;;8.07;6.38;;;14.20;99.90;;;;;;7589921;19;20053;-72
2023/08/11 05:34:15;;;;;;;8.43;6.47;;;14.20;99.90;;;;;;7587287;19;20609;-73
2023/08/11 05:36:48;;;;;;;11.55;6.45;;;14.30;99.90;;;;;;7595125;19;20499;-72
2023/08/11 05:39:21;;;;;;;10.20;6.57;;;14.50;99.90;;;;;;7599941;19;21079;-72
2023/08/11 05:41:53;;;;;;;9.90;6.05;;;14.50;99.90;;;;;;7593059;19;20590;-73
2023/08/11 05:44:26;;;;;;;10.93;6.50;;;14.60;99.90;;;;;;7593273;19;20019;-72
2023/08/11 05:46:58;;;;;;;8.30;6.35;;;14.80;99.90;;;;;;7593577;19;20014;-71
2023/08/11 05:49:31;;;;;;;7.67;5.60;;;14.80;99.90;;;;;;7601797;19;20022;-73
2023/08/11 05:52:04;;;;;;;9.77;6.10;;;14.90;99.90;;;;;;7599087;19;20014;-73
2023/08/11 05:54:36;;;;;;;9.63;6.38;;;15.00;99.90;;;;;;7600797;19;20286;-73
2023/08/11 05:57:08;;;;;;;10.13;5.80;;;15.20;99.90;;;;;;7587982;19;20015;-72
2023/08/11 05:59:41;;;;;;;6.78;5.28;;;15.30;99.90;;;;;;7606657;19;20063;-73
2023/08/11 06:02:13;;;;;;;9.43;6.75;;;15.40;99.90;;;;;;7590513;19;20043;-71
2023/08/11 06:04:46;;;;;;;10.88;6.20;;;15.50;99.90;;;;;;7601214;19;20037;-72
2023/08/11 06:07:18;;;;;;;11.10;5.57;;;15.60;99.90;;;;;;7605012;19;20010;-72
2023/08/11 06:09:51;;;;;;;7.85;5.70;;;15.70;99.90;;;;;;7608090;19;20283;-72
2023/08/11 06:12:24;;;;;;;6.30;5.30;;;15.80;99.90;;;;;;7600933;19;20030;-73
2023/08/11 06:14:56;;;;;;;6.27;5.30;;;16.00;99.90;;;;;;7607323;19;20073;-73
2023/08/11 06:17:28;;;;;;;11.10;5.65;;;16.10;99.90;;;;;;7599995;19;20018;-73
2023/08/11 06:20:01;;;;;;;10.65;5.60;;;16.20;99.90;;;;;;7613221;19;20023;-72
2023/08/11 06:22:33;;;;;;;10.30;6.05;;;16.30;99.90;;;;;;7612165;19;20041;-74
2023/08/11 06:25:06;;;;;;;12.30;5.82;;;16.40;99.90;;;;;;7615859;19;20086;-73
2023/08/11 06:27:38;;;;;;;10.48;5.70;;;16.60;99.90;;;;;;7622185;19;20010;-75
2023/08/11 06:30:11;;;;;;;8.00;5.70;;;16.70;99.90;;;;;;7624128;19;21176;-73
2023/08/11 06:32:44;;;;;;;8.38;5.53;;;16.80;99.90;;;;;;7622049;19;20022;-72
2023/08/11 06:35:17;;;;;;;6.55;5.25;;;16.90;99.90;;;;;;7623467;19;20041;-74
2023/08/11 06:37:49;;;;;;;8.93;5.87;;;17.10;99.90;;;;;;7621053;19;20018;-73
2023/08/11 06:40:21;;;;;;;5.97;4.75;;;17.20;99.90;;;;;;7619554;19;20277;-73
2023/08/11 06:42:54;;;;;;;6.20;4.80;;;17.30;99.90;;;;;;7606408;19;20978;-72
2023/08/11 06:45:26;;;;;;;6.75;5.15;;;17.50;99.90;;;;;;7598068;19;20018;-73
2023/08/11 06:47:59;;;;;;;8.43;5.30;;;17.60;99.90;;;;;;7616419;19;20025;-74
2023/08/11 06:50:31;;;;;;;9.27;5.60;;;17.70;99.90;;;;;;7602949;19;20419;-73
2023/08/11 06:53:04;;;;;;;6.32;4.75;;;17.90;99.90;;;;;;7611377;19;20018;-73
2023/08/11 06:55:36;;;;;;;9.18;5.80;;;18.00;99.90;;;;;;7616693;19;20064;-73
2023/08/11 06:58:08;;;;;;;9.02;5.00;;;18.20;99.90;;;;;;7607213;19;20025;-73
2023/08/11 07:00:41;;;;;;;9.07;5.20;;;18.40;99.90;;;;;;7597505;19;20047;-74
2023/08/11 07:03:13;;;;;;;9.30;4.82;;;18.50;99.90;;;;;;7592029;19;20697;-74
2023/08/11 07:05:45;;;;;;;6.40;4.63;;;18.60;99.90;;;;;;7592217;19;20098;-74
2023/08/11 07:08:21;;;;;;;5.93;4.88;;;18.80;99.90;;;;;;7595132;19;20027;-73
2023/08/11 07:10:53;;;;;;;6.45;5.15;;;19.00;99.90;;;;;;7600067;19;20075;-73
2023/08/11 07:13:26;;;;;;;8.93;4.80;;;19.10;99.90;;;;;;7589582;19;20018;-74
2023/08/11 07:15:58;;;;;;;9.45;4.57;;;19.20;99.90;;;;;;7596348;19;20053;-73
2023/08/11 07:18:30;;;;;;;6.47;4.60;;;19.30;99.90;;;;;;7597202;19;20026;-73
2023/08/11 07:21:03;;;;;;;6.35;4.47;;;19.40;99.90;;;;;;7596137;19;20025;-74
2023/08/11 07:23:35;;;;;;;9.73;4.70;;;19.60;99.90;;;;;;7588619;19;20019;-74
2023/08/11 07:26:07;;;;;;;6.10;4.10;;;19.70;99.90;;;;;;7582204;19;20014;-72
2023/08/11 07:28:40;;;;;;;5.57;4.18;;;19.90;99.90;;;;;;7596696;19;20051;-73
2023/08/11 07:31:12;;;;;;;6.63;4.82;;;20.00;99.90;;;;;;7590781;19;20093;-72
2023/08/11 07:33:44;;;;;;;7.10;4.53;;;20.20;99.90;;;;;;7597974;19;20025;-74
2023/08/11 07:36:17;;;;;;;5.32;3.88;;;20.50;99.90;;;;;;7585514;19;20334;-73
2023/08/11 07:38:49;;;;;;;4.45;4.00;;;20.60;99.90;;;;;;7591193;19;20928;-72
2023/08/11 07:41:21;;;;;;;5.85;4.28;;;20.70;99.90;;;;;;7590086;19;20025;-72
2023/08/11 07:44:04;;;;;;;4.78;4.25;;;21.00;99.90;;;;;;7589889;19;20018;-75
2023/08/11 07:46:36;;;;;;;6.55;5.00;;;21.30;99.90;;;;;;7588744;19;20015;-72
2023/08/11 07:49:09;;;;;;;5.35;4.30;;;21.30;99.90;;;;;;7581489;19;20014;-73
2023/08/11 07:51:41;;;;;;;13.02;3.95;;;21.40;99.90;;;;;;7586971;19;20860;-74
2023/08/11 07:54:16;;;;;;;5.50;3.70;;;21.40;99.90;;;;;;7586603;19;20022;-73
2023/08/11 07:56:48;;;;;;;5.30;4.25;;;21.50;99.90;;;;;;7590061;19;21008;-73
2023/08/11 07:59:21;;;;;;;9.13;4.20;;;21.70;99.90;;;;;;7588871;19;20054;-74
2023/08/11 08:01:53;;;;;;;6.25;3.88;;;21.70;99.90;;;;;;7574312;19;20053;-73
2023/08/11 08:04:25;;;;;;;8.15;4.43;;;21.70;99.90;;;;;;7585346;19;20023;-74
2023/08/11 08:06:57;;;;;;;7.50;3.85;;;21.80;99.90;;;;;;7569102;19;20018;-73
2023/08/11 08:09:33;;;;;;;6.25;4.28;;;21.90;99.90;;;;;;7581737;19;20022;-74
2023/08/11 08:12:06;;;;;;;6.38;4.28;;;21.90;99.90;;;;;;7576672;19;20114;-73
2023/08/11 08:14:38;;;;;;;4.70;3.72;;;22.10;99.90;;;;;;7579327;19;20037;-73
2023/08/11 08:17:10;;;;;;;5.28;3.90;;;22.20;99.90;;;;;;7582772;19;20059;-73
2023/08/11 08:19:42;;;;;;;8.32;3.83;;;22.30;99.90;;;;;;7577371;19;20022;-74
2023/08/11 08:22:15;;;;;;;5.20;3.90;;;22.40;99.90;;;;;;7576698;19;20046;-74
2023/08/11 08:24:48;;;;;;;4.85;3.80;;;22.50;99.90;;;;;;7576953;19;20011;-74
2023/08/11 08:27:26;;;;;;;5.75;4.20;;;22.50;99.90;;;;;;7575539;19;20125;-72
2023/08/11 08:29:59;;;;;;;5.80;3.55;;;22.60;99.90;;;;;;7581789;19;21357;-73
2023/08/11 08:32:33;;;;;;;9.93;3.97;;;22.70;99.90;;;;;;7580956;19;20023;-74
2023/08/11 08:35:07;;;;;;;5.22;3.78;;;22.70;99.90;;;;;;7596950;19;20025;-74
2023/08/11 08:37:39;;;;;;;4.30;3.38;;;22.90;99.90;;;;;;7586873;19;20051;-74
2023/08/11 08:40:12;;;;;;;4.75;3.95;;;23.00;99.90;;;;;;7591326;19;20055;-73
2023/08/11 08:42:44;;;;;;;4.33;3.93;;;23.00;99.90;;;;;;7587195;19;20022;-73
2023/08/11 08:45:18;;;;;;;5.70;3.50;;;23.10;99.90;;;;;;7582980;19;21285;-75
2023/08/11 08:47:57;;;;;;;6.88;3.70;;;23.10;99.90;;;;;;7580926;19;20021;-73
2023/08/11 08:50:38;;;;;;;5.65;3.47;;;23.40;99.80;;;;;;7588115;19;21173;-73
2023/08/11 08:53:10;;;;;;;5.95;3.42;;;23.40;97.80;;;;;;7588808;19;20024;-73
2023/08/11 08:55:43;;;;;;;5.05;3.55;;;23.40;99.00;;;;;;7589922;19;20026;-73
2023/08/11 08:58:16;;;;;;;4.38;3.60;;;23.40;98.30;;;;;;7592047;19;20021;-74
2023/08/11 09:00:50;;;;;;;4.93;3.53;;;23.50;97.80;;;;;;7570086;19;20018;-74
2023/08/11 09:03:22;;;;;;;5.38;3.38;;;23.50;96.90;;;;;;7587279;19;20783;-72
2023/08/11 09:05:55;;;;;;;4.63;3.55;;;23.50;96.90;;;;;;7584065;19;20091;-73
2023/08/11 09:08:31;;;;;;;3.55;3.10;;;23.50;97.20;;;;;;7581272;19;20019;-72
2023/08/11 09:11:04;;;;;;;4.00;3.22;;;23.60;97.00;;;;;;7591199;19;20015;-74
2023/08/11 09:13:38;;;;;;;6.93;3.05;;;23.70;96.50;;;;;;7585869;19;20022;-72
2023/08/11 09:16:10;;;;;;;4.70;3.00;;;23.70;96.30;;;;;;7581676;19;20015;-73
2023/08/11 09:18:44;;;;;;;4.13;3.30;;;23.60;96.40;;;;;;7579083;19;20534;-72
2023/08/11 09:21:16;;;;;;;4.97;3.40;;;23.50;95.70;;;;;;7588652;19;20047;-73
2023/08/11 09:23:53;;;;;;;6.28;3.47;;;23.40;96.10;;;;;;7586014;19;20014;-73
2023/08/11 09:26:26;;;;;;;4.05;3.17;;;23.40;96.40;;;;;;7585806;19;20083;-72
2023/08/11 09:28:59;;;;;;;4.35;3.55;;;23.40;96.90;;;;;;7582123;19;20023;-72
2023/08/11 09:31:31;;;;;;;5.35;3.97;;;23.50;96.60;;;;;;7584137;19;20024;-72
2023/08/11 09:34:17;;;;;;;5.03;3.20;;;23.60;97.20;;;;;;7584539;19;20526;-73
2023/08/11 09:36:50;;;;;;;3.67;3.00;;;23.80;97.10;;;;;;7591479;19;20110;-72
2023/08/11 09:39:26;;;;;;;6.50;3.70;;;23.90;96.00;;;;;;7582868;19;20010;-73
2023/08/11 09:41:58;;;;;;;4.20;3.17;;;23.90;95.90;;;;;;7581507;19;20021;-72
2023/08/11 09:44:31;;;;;;;4.25;3.58;;;24.00;96.30;;;;;;7580101;19;20015;-72
2023/08/11 09:47:03;;;;;;;4.72;3.15;;;23.90;95.70;;;;;;7574098;19;20078;-72
2023/08/11 09:49:48;;;;;;;4.82;2.80;;;24.00;96.10;;;;;;7582639;19;20018;-72
2023/08/11 09:52:20;;;;;;;3.58;2.95;;;24.10;96.10;;;;;;7578633;19;20055;-72
2023/08/11 09:54:56;;;;;;;4.22;3.08;;;24.10;96.00;;;;;;7584664;19;20021;-71
2023/08/11 09:57:28;;;;;;;4.55;3.55;;;24.20;95.90;;;;;;7578667;19;20058;-71
2023/08/11 10:00:01;;;;;;;6.00;3.43;;;24.20;94.80;;;;;;7589632;19;20014;-74
2023/08/11 10:02:39;;;;;;;5.90;3.05;;;24.30;94.90;;;;;;7584720;19;20033;-73
2023/08/11 10:05:15;;;;;;;4.32;2.85;;;24.30;95.10;;;;;;7593075;19;20476;-72
2023/08/11 10:07:50;;;;;;;5.03;3.05;;;24.30;95.20;;;;;;7585159;19;20505;-74
2023/08/11 10:10:23;;;;;;;4.53;3.17;;;24.40;94.90;;;;;;7583012;19;21055;-72
2023/08/11 10:13:02;;;;;;;;;;;24.50;94.40;;;;;;7585396;19;20038;-72
2023/08/11 10:15:35;;;;;;;7.38;2.85;;;24.60;95.10;;;;;;7579139;19;19955;-73
2023/08/11 10:18:08;;;;;;;3.72;2.88;;;24.70;94.10;;;;;;7579919;19;20018;-73
2023/08/11 10:20:41;;;;;;;3.67;2.75;;;24.80;93.80;;;;;;7587665;19;20011;-73
2023/08/11 10:23:15;;;;;;;4.35;3.35;;;24.90;94.30;;;;;;7587904;19;20051;-74
2023/08/11 10:25:48;;;;;;;3.30;2.90;;;25.00;92.90;;;;;;7582194;19;20010;-73
2023/08/11 10:28:21;;;;;;;4.63;2.90;;;25.00;93.20;;;;;;7590014;19;20530;-72
2023/08/11 10:30:58;;;;;;;5.47;2.80;;;25.00;93.60;;;;;;7592090;19;20022;-71
2023/08/11 10:33:31;;;;;;;4.82;2.80;;;25.10;92.90;;;;;;7579251;19;20013;-72
2023/08/11 10:36:05;;;;;;;6.25;3.30;;;25.10;92.90;;;;;;7587874;19;20027;-73
2023/08/11 10:38:37;;;;;;;;;;;25.20;92.60;;;;;;7584953;19;20018;-72
2023/08/11 10:41:10;;;;;;;3.20;2.90;;;25.20;92.90;;;;;;7582341;19;19979;-72
2023/08/11 10:43:47;;;;;;;4.00;2.95;;;25.20;92.70;;;;;;7576720;19;20022;-72
2023/08/11 10:46:24;;;;;;;5.28;2.95;;;25.30;92.50;;;;;;7582291;19;20149;-74
2023/08/11 10:49:08;;;;;;;3.10;2.80;;;25.30;92.20;;;;;;7572808;19;20014;-72
2023/08/11 10:51:41;;;;;;;3.55;2.92;;;25.20;91.90;;;;;;7584012;19;20932;-72
2023/08/11 10:54:23;;;;;;;;;;;25.30;92.20;;;;;;7586176;19;21012;-72
2023/08/11 10:56:59;;;;;;;3.53;2.45;;;25.50;91.90;;;;;;7577695;19;19965;-75
2023/08/11 10:59:33;;;;;;;7.22;3.10;;;25.50;91.90;;;;;;7577967;19;20026;-72
2023/08/11 11:02:05;;;;;;;;;;;25.60;91.20;;;;;;7585830;19;21550;-72
2023/08/11 11:04:43;;;;;;;4.85;2.88;;;25.70;91.40;;;;;;7580027;19;19927;-72
2023/08/11 11:07:16;;;;;;;4.20;2.75;;;25.80;90.20;;;;;;7566267;19;20028;-72
2023/08/11 11:09:50;;;;;;;3.20;2.88;;;25.90;90.40;;;;;;7573909;19;20599;-72
2023/08/11 11:12:22;;;;;;;3.10;2.75;;;26.20;90.80;;;;;;7583828;19;20045;-72
2023/08/11 11:14:55;;;;;;;3.08;2.65;;;26.70;90.10;;;;;;7589191;19;20051;-72
2023/08/11 11:17:27;;;;;;;2.78;2.58;;;27.20;90.20;;;;;;7582387;19;20026;-74
2023/08/11 11:20:00;;;;;;;2.97;2.67;;;27.40;83.50;;;;;;7584496;19;20015;-74
2023/08/11 11:22:36;;;;;;;4.93;2.63;;;27.80;85.60;;;;;;7576020;19;20041;-72
2023/08/11 11:25:11;;;;;;;4.97;2.70;;;28.20;82.50;;;;;;7587446;19;20476;-73
2023/08/11 11:27:44;;;;;;;2.88;2.38;;;28.60;82.70;;;;;;7585734;19;20060;-73
2023/08/11 11:30:18;;;;;;;4.78;2.42;;;28.90;82.70;;;;;;7593311;19;20018;-72
2023/08/11 11:32:51;;;;;;;3.72;2.90;;;29.20;79.60;;;;;;7586032;19;20014;-72
2023/08/11 11:35:23;;;;;;;2.92;2.38;;;29.40;77.50;;;;;;7581453;19;20015;-72
2023/08/11 11:37:58;;;;;;;3.72;2.47;;;29.70;79.50;;;;;;7583250;19;20106;-71
2023/08/11 11:40:31;;;;;;;3.15;2.42;;;30.00;75.40;;;;;;7583288;19;20767;-73
2023/08/11 11:43:03;;;;;;;3.75;2.65;;;30.10;75.50;;;;;;7585366;19;20063;-72
2023/08/11 11:45:36;;;;;;;3.58;2.55;;;30.20;76.30;;;;;;7584123;19;20475;-72
2023/08/11 11:48:09;;;;;;;;;;;30.10;71.30;;;;;;7571216;19;20015;-73
2023/08/11 11:50:41;;;;;;;4.57;2.95;;;30.20;73.40;;;;;;7580870;19;19914;-72
2023/08/11 11:53:14;;;;;;;4.10;2.57;;;30.40;72.40;;;;;;7583193;19;21025;-72
2023/08/11 11:55:47;;;;;;;2.90;2.63;;;30.60;75.70;;;;;;7579571;19;21280;-71
2023/08/11 11:58:21;;;;;;;;;;;31.10;71.80;;;;;;7585101;19;20062;-72
2023/08/11 12:00:53;;;;;;;5.75;2.65;;;31.40;73.00;;;;;;7588971;19;19926;-72
2023/08/11 12:03:27;;;;;;;4.53;2.85;;;31.50;68.60;;;;;;7587150;19;20022;-73
2023/08/11 12:05:59;;;;;;;5.07;2.80;;;31.50;67.70;;;;;;7584370;19;20019;-72
2023/08/11 12:08:34;;;;;;;3.28;2.80;;;31.60;67.00;;;;;;7572134;19;20614;-72
2023/08/11 12:11:10;;;;;;;3.15;2.80;;;31.60;66.80;;;;;;7581632;19;20843;-72
2023/08/11 12:13:44;;;;;;;3.63;2.80;;;31.60;66.20;;;;;;7579099;19;20562;-73
2023/08/11 12:16:19;;;;;;;5.95;2.90;;;31.70;67.80;;;;;;7580482;19;20018;-73
2023/08/11 12:19:11;;;;;;;3.05;2.75;;;32.00;68.30;;;;;;7564223;19;20018;-72
2023/08/11 12:21:43;;;;;;;4.47;3.00;;;31.40;62.70;;;;;;7553264;19;20021;-72
2023/08/11 12:24:16;;;;;;;4.20;2.55;;;30.90;65.50;;;;;;7562183;19;20618;-72
2023/08/11 12:26:48;;;;;;;3.33;2.75;;;31.40;66.20;;;;;;7557645;19;20018;-74
2023/08/11 12:29:21;;;;;;;4.30;2.75;;;32.00;65.90;;;;;;7568231;19;20404;-72
2023/08/11 12:31:53;;;;;;;4.35;2.50;;;32.50;62.50;;;;;;7563538;19;20025;-72
2023/08/11 12:34:25;;;;;;;4.10;3.03;;;32.80;62.10;;;;;;7553678;19;20026;-73
2023/08/11 12:36:57;;;;;;;3.20;2.60;;;32.70;62.30;;;;;;7561618;19;20029;-73
2023/08/11 12:39:30;;;;;;;3.43;2.90;;;32.70;63.50;;;;;;7572585;19;21367;-72
2023/08/11 12:42:04;;;;;;;3.65;3.08;;;32.80;66.10;;;;;;7576869;19;20022;-73
2023/08/11 12:44:36;;;;;;;3.75;3.00;;;32.60;61.20;;;;;;7551676;19;20506;-72
2023/08/11 12:47:08;;;;;;;4.03;3.10;;;32.20;63.20;;;;;;7556288;19;20397;-73
2023/08/11 12:49:41;;;;;;;3.97;3.20;;;32.70;67.70;;;;;;7566963;19;20022;-72
2023/08/11 12:52:14;;;;;;;6.05;2.90;;;32.80;63.00;;;;;;7577081;19;20014;-72
2023/08/11 12:54:46;;;;;;;3.50;3.10;;;32.80;63.60;;;;;;7573995;19;20021;-72
2023/08/11 12:57:18;;;;;;;3.13;2.83;;;33.00;62.90;;;;;;7577255;19;20019;-72
2023/08/11 12:59:50;;;;;;;3.88;2.97;;;33.10;61.50;;;;;;7565852;19;20022;-73
2023/08/11 13:02:22;;;;;;;7.53;3.20;;;33.20;61.70;;;;;;7574319;19;20026;-72
2023/08/11 13:04:55;;;;;;;3.53;3.20;;;33.30;63.10;;;;;;7562937;19;20208;-72
2023/08/11 13:07:27;;;;;;;3.65;3.00;;;33.60;62.40;;;;;;7571425;19;20018;-73
2023/08/11 13:09:59;;;;;;;3.47;3.00;;;33.60;62.20;;;;;;7558937;19;20022;-73
2023/08/11 13:12:32;;;;;;;3.22;2.92;;;33.70;62.40;;;;;;7565753;19;20391;-72
2023/08/11 13:15:06;;;;;;;4.07;3.08;;;33.40;60.50;;;;;;7569644;19;20026;-72
2023/08/11 13:17:39;;;;;;;3.25;2.78;;;33.40;59.50;;;;;;7572280;19;20024;-73
2023/08/11 13:20:12;;;;;;;7.30;3.08;;;33.40;61.50;;;;;;7562177;19;20097;-72